sensor_id;sensor_type;location;lat;lon;timestamp;P1;durP1;ratioP1;P2;durP2;ratioP2
41297;SDS011;27381;46.032;13.650;2023-01-16T00:02:12;0.30;;;0.30;;
41297;SDS011;27381;46.032;13.650;2023-01-16T00:04:37;0.30;;;0.30;;
41297;SDS011;27381;46.032;13.650;2023-01-16T00:07:03;0.30;;;0.30;;
41297;SDS011;27381;46.032;13.650;2023-01-16T00:09:28;0.38;;;0.38;;
41297;SDS011;27381;46.032;13.650;2023-01-16T00:11:54;0.28;;;0.28;;
41297;SDS011;27381;46.032;13.650;2023-01-16T00:14:19;0.32;;;0.32;;
41297;SDS011;27381;46.032;13.650;2023-01-16T00:16:45;0.22;;;0.22;;
41297;SDS011;27381;46.032;13.650;2023-01-16T00:19:10;0.30;;;0.30;;
41297;SDS011;27381;46.032;13.650;2023-01-16T00:21:35;0.20;;;0.20;;
41297;SDS011;27381;46.032;13.650;2023-01-16T00:24:01;0.10;;;0.10;;
41297;SDS011;27381;46.032;13.650;2023-01-16T00:26:27;0.88;;;0.50;;
41297;SDS011;27381;46.032;13.650;2023-01-16T00:28:53;0.20;;;0.20;;
41297;SDS011;27381;46.032;13.650;2023-01-16T00:31:18;0.20;;;0.20;;
41297;SDS011;27381;46.032;13.650;2023-01-16T00:33:44;0.20;;;0.20;;
41297;SDS011;27381;46.032;13.650;2023-01-16T00:36:10;0.20;;;0.20;;
41297;SDS011;27381;46.032;13.650;2023-01-16T00:38:36;0.30;;;0.30;;
41297;SDS011;27381;46.032;13.650;2023-01-16T00:41:01;0.20;;;0.20;;
41297;SDS011;27381;46.032;13.650;2023-01-16T00:43:27;0.28;;;0.28;;
41297;SDS011;27381;46.032;13.650;2023-01-16T00:45:53;0.30;;;0.30;;
41297;SDS011;27381;46.032;13.650;2023-01-16T00:48:18;0.10;;;0.10;;
41297;SDS011;27381;46.032;13.650;2023-01-16T00:50:44;0.20;;;0.20;;
41297;SDS011;27381;46.032;13.650;2023-01-16T00:53:09;0.20;;;0.20;;
41297;SDS011;27381;46.032;13.650;2023-01-16T00:55:35;0.20;;;0.20;;
41297;SDS011;27381;46.032;13.650;2023-01-16T00:58:04;0.20;;;0.20;;
41297;SDS011;27381;46.032;13.650;2023-01-16T01:00:29;0.20;;;0.20;;
41297;SDS011;27381;46.032;13.650;2023-01-16T01:02:55;0.28;;;0.28;;
41297;SDS011;27381;46.032;13.650;2023-01-16T01:05:20;0.20;;;0.20;;
41297;SDS011;27381;46.032;13.650;2023-01-16T01:07:46;0.20;;;0.20;;
41297;SDS011;27381;46.032;13.650;2023-01-16T01:10:11;0.75;;;0.38;;
41297;SDS011;27381;46.032;13.650;2023-01-16T01:12:37;0.22;;;0.20;;
41297;SDS011;27381;46.032;13.650;2023-01-16T01:15:03;0.30;;;0.30;;
41297;SDS011;27381;46.032;13.650;2023-01-16T01:17:28;0.17;;;0.17;;
41297;SDS011;27381;46.032;13.650;2023-01-16T01:19:54;0.28;;;0.28;;
41297;SDS011;27381;46.032;13.650;2023-01-16T01:22:19;0.52;;;0.20;;
41297;SDS011;27381;46.032;13.650;2023-01-16T01:24:48;0.82;;;0.20;;
41297;SDS011;27381;46.032;13.650;2023-01-16T01:27:14;0.13;;;0.13;;
41297;SDS011;27381;46.032;13.650;2023-01-16T01:29:40;0.20;;;0.20;;
41297;SDS011;27381;46.032;13.650;2023-01-16T01:32:05;0.20;;;0.20;;
41297;SDS011;27381;46.032;13.650;2023-01-16T01:34:31;0.20;;;0.20;;
41297;SDS011;27381;46.032;13.650;2023-01-16T01:36:59;1.23;;;0.32;;
41297;SDS011;27381;46.032;13.650;2023-01-16T01:39:25;0.20;;;0.20;;
41297;SDS011;27381;46.032;13.650;2023-01-16T01:41:50;0.20;;;0.20;;
41297;SDS011;27381;46.032;13.650;2023-01-16T01:47:00;0.20;;;0.20;;
41297;SDS011;27381;46.032;13.650;2023-01-16T01:49:29;0.20;;;0.20;;
41297;SDS011;27381;46.032;13.650;2023-01-16T01:51:56;0.10;;;0.10;;
41297;SDS011;27381;46.032;13.650;2023-01-16T01:54:26;0.10;;;0.10;;
41297;SDS011;27381;46.032;13.650;2023-01-16T01:57:10;0.10;;;0.10;;
41297;SDS011;27381;46.032;13.650;2023-01-16T01:59:39;0.20;;;0.20;;
41297;SDS011;27381;46.032;13.650;2023-01-16T02:02:06;0.20;;;0.20;;
41297;SDS011;27381;46.032;13.650;2023-01-16T02:04:34;0.10;;;0.10;;
41297;SDS011;27381;46.032;13.650;2023-01-16T02:07:02;0.10;;;0.10;;
41297;SDS011;27381;46.032;13.650;2023-01-16T02:09:29;0.20;;;0.20;;
41297;SDS011;27381;46.032;13.650;2023-01-16T02:11:56;0.15;;;0.15;;
41297;SDS011;27381;46.032;13.650;2023-01-16T02:14:22;0.20;;;0.20;;
41297;SDS011;27381;46.032;13.650;2023-01-16T02:16:48;0.20;;;0.20;;
41297;SDS011;27381;46.032;13.650;2023-01-16T02:19:44;0.20;;;0.20;;
41297;SDS011;27381;46.032;13.650;2023-01-16T02:27:25;0.10;;;0.10;;
41297;SDS011;27381;46.032;13.650;2023-01-16T02:32:29;0.20;;;0.20;;
41297;SDS011;27381;46.032;13.650;2023-01-16T02:40:09;0.10;;;0.10;;
41297;SDS011;27381;46.032;13.650;2023-01-16T02:42:43;0.13;;;0.13;;
41297;SDS011;27381;46.032;13.650;2023-01-16T02:45:21;0.20;;;0.20;;
41297;SDS011;27381;46.032;13.650;2023-01-16T02:48:03;0.20;;;0.20;;
41297;SDS011;27381;46.032;13.650;2023-01-16T02:53:24;0.10;;;0.10;;
41297;SDS011;27381;46.032;13.650;2023-01-16T02:55:55;0.10;;;0.10;;
41297;SDS011;27381;46.032;13.650;2023-01-16T02:58:22;0.20;;;0.20;;
41297;SDS011;27381;46.032;13.650;2023-01-16T03:00:53;0.20;;;0.20;;
41297;SDS011;27381;46.032;13.650;2023-01-16T03:05:57;0.10;;;0.10;;
41297;SDS011;27381;46.032;13.650;2023-01-16T03:13:49;0.15;;;0.15;;
41297;SDS011;27381;46.032;13.650;2023-01-16T03:16:26;0.20;;;0.20;;
41297;SDS011;27381;46.032;13.650;2023-01-16T03:23:51;0.20;;;0.20;;
41297;SDS011;27381;46.032;13.650;2023-01-16T03:31:29;0.20;;;0.20;;
41297;SDS011;27381;46.032;13.650;2023-01-16T03:34:01;0.20;;;0.20;;
41297;SDS011;27381;46.032;13.650;2023-01-16T03:36:36;0.20;;;0.20;;
41297;SDS011;27381;46.032;13.650;2023-01-16T03:39:05;0.10;;;0.10;;
41297;SDS011;27381;46.032;13.650;2023-01-16T03:41:32;0.10;;;0.10;;
41297;SDS011;27381;46.032;13.650;2023-01-16T03:44:00;0.20;;;0.20;;
41297;SDS011;27381;46.032;13.650;2023-01-16T03:46:28;0.20;;;0.20;;
41297;SDS011;27381;46.032;13.650;2023-01-16T03:49:02;0.10;;;0.10;;
41297;SDS011;27381;46.032;13.650;2023-01-16T03:51:34;0.20;;;0.20;;
41297;SDS011;27381;46.032;13.650;2023-01-16T03:54:09;0.10;;;0.10;;
41297;SDS011;27381;46.032;13.650;2023-01-16T03:56:37;0.15;;;0.15;;
41297;SDS011;27381;46.032;13.650;2023-01-16T03:59:05;0.20;;;0.20;;
41297;SDS011;27381;46.032;13.650;2023-01-16T04:04:18;0.13;;;0.13;;
41297;SDS011;27381;46.032;13.650;2023-01-16T04:06:45;0.20;;;0.20;;
41297;SDS011;27381;46.032;13.650;2023-01-16T04:09:14;0.10;;;0.10;;
41297;SDS011;27381;46.032;13.650;2023-01-16T04:11:41;0.10;;;0.10;;
41297;SDS011;27381;46.032;13.650;2023-01-16T04:14:08;0.10;;;0.10;;
41297;SDS011;27381;46.032;13.650;2023-01-16T04:16:34;0.20;;;0.20;;
41297;SDS011;27381;46.032;13.650;2023-01-16T04:19:00;0.17;;;0.17;;
41297;SDS011;27381;46.032;13.650;2023-01-16T04:21:27;0.20;;;0.20;;
41297;SDS011;27381;46.032;13.650;2023-01-16T04:23:53;0.20;;;0.20;;
41297;SDS011;27381;46.032;13.650;2023-01-16T04:26:20;0.20;;;0.20;;
41297;SDS011;27381;46.032;13.650;2023-01-16T04:28:45;0.20;;;0.20;;
41297;SDS011;27381;46.032;13.650;2023-01-16T04:31:10;0.20;;;0.20;;
41297;SDS011;27381;46.032;13.650;2023-01-16T04:33:36;0.20;;;0.20;;
41297;SDS011;27381;46.032;13.650;2023-01-16T04:36:01;0.10;;;0.10;;
41297;SDS011;27381;46.032;13.650;2023-01-16T04:38:26;0.20;;;0.20;;
41297;SDS011;27381;46.032;13.650;2023-01-16T04:40:52;0.20;;;0.20;;
41297;SDS011;27381;46.032;13.650;2023-01-16T04:43:18;0.15;;;0.15;;
41297;SDS011;27381;46.032;13.650;2023-01-16T04:45:43;0.10;;;0.10;;
41297;SDS011;27381;46.032;13.650;2023-01-16T04:48:09;0.10;;;0.10;;
41297;SDS011;27381;46.032;13.650;2023-01-16T04:50:34;0.20;;;0.20;;
41297;SDS011;27381;46.032;13.650;2023-01-16T04:52:59;0.20;;;0.20;;
41297;SDS011;27381;46.032;13.650;2023-01-16T04:55:25;0.20;;;0.20;;
41297;SDS011;27381;46.032;13.650;2023-01-16T04:57:50;0.10;;;0.10;;
41297;SDS011;27381;46.032;13.650;2023-01-16T05:00:15;0.10;;;0.10;;
41297;SDS011;27381;46.032;13.650;2023-01-16T05:02:41;0.20;;;0.20;;
41297;SDS011;27381;46.032;13.650;2023-01-16T05:05:06;0.20;;;0.20;;
41297;SDS011;27381;46.032;13.650;2023-01-16T05:07:32;0.17;;;0.17;;
41297;SDS011;27381;46.032;13.650;2023-01-16T05:09:57;0.10;;;0.10;;
41297;SDS011;27381;46.032;13.650;2023-01-16T05:12:22;0.20;;;0.20;;
41297;SDS011;27381;46.032;13.650;2023-01-16T05:14:48;0.20;;;0.20;;
41297;SDS011;27381;46.032;13.650;2023-01-16T05:17:13;0.10;;;0.10;;
41297;SDS011;27381;46.032;13.650;2023-01-16T05:19:39;0.20;;;0.20;;
41297;SDS011;27381;46.032;13.650;2023-01-16T05:22:04;1.30;;;0.28;;
41297;SDS011;27381;46.032;13.650;2023-01-16T05:24:30;0.20;;;0.20;;
41297;SDS011;27381;46.032;13.650;2023-01-16T05:26:55;0.28;;;0.28;;
41297;SDS011;27381;46.032;13.650;2023-01-16T05:29:21;0.20;;;0.20;;
41297;SDS011;27381;46.032;13.650;2023-01-16T05:31:46;0.10;;;0.10;;
41297;SDS011;27381;46.032;13.650;2023-01-16T05:34:12;0.10;;;0.10;;
41297;SDS011;27381;46.032;13.650;2023-01-16T05:36:37;0.10;;;0.10;;
41297;SDS011;27381;46.032;13.650;2023-01-16T05:39:03;0.30;;;0.30;;
41297;SDS011;27381;46.032;13.650;2023-01-16T05:41:28;0.20;;;0.20;;
41297;SDS011;27381;46.032;13.650;2023-01-16T05:43:54;0.30;;;0.30;;
41297;SDS011;27381;46.032;13.650;2023-01-16T05:46:19;0.40;;;0.40;;
41297;SDS011;27381;46.032;13.650;2023-01-16T05:48:44;0.20;;;0.20;;
41297;SDS011;27381;46.032;13.650;2023-01-16T05:51:10;0.10;;;0.10;;
41297;SDS011;27381;46.032;13.650;2023-01-16T05:53:36;0.10;;;0.10;;
41297;SDS011;27381;46.032;13.650;2023-01-16T05:56:06;0.20;;;0.20;;
41297;SDS011;27381;46.032;13.650;2023-01-16T05:58:32;0.10;;;0.10;;
41297;SDS011;27381;46.032;13.650;2023-01-16T06:00:57;0.30;;;0.22;;
41297;SDS011;27381;46.032;13.650;2023-01-16T06:03:22;0.20;;;0.20;;
41297;SDS011;27381;46.032;13.650;2023-01-16T06:05:48;0.20;;;0.20;;
41297;SDS011;27381;46.032;13.650;2023-01-16T06:08:13;0.10;;;0.10;;
41297;SDS011;27381;46.032;13.650;2023-01-16T06:10:39;3.17;;;0.22;;
41297;SDS011;27381;46.032;13.650;2023-01-16T06:13:04;0.20;;;0.20;;
41297;SDS011;27381;46.032;13.650;2023-01-16T06:15:30;0.20;;;0.20;;
41297;SDS011;27381;46.032;13.650;2023-01-16T06:17:55;0.20;;;0.20;;
41297;SDS011;27381;46.032;13.650;2023-01-16T06:20:21;0.20;;;0.20;;
41297;SDS011;27381;46.032;13.650;2023-01-16T06:22:46;0.20;;;0.20;;
41297;SDS011;27381;46.032;13.650;2023-01-16T06:25:12;0.20;;;0.20;;
41297;SDS011;27381;46.032;13.650;2023-01-16T06:27:37;0.10;;;0.10;;
41297;SDS011;27381;46.032;13.650;2023-01-16T06:30:04;0.20;;;0.20;;
41297;SDS011;27381;46.032;13.650;2023-01-16T06:32:29;0.10;;;0.10;;
41297;SDS011;27381;46.032;13.650;2023-01-16T06:34:55;0.20;;;0.20;;
41297;SDS011;27381;46.032;13.650;2023-01-16T06:37:20;0.17;;;0.17;;
41297;SDS011;27381;46.032;13.650;2023-01-16T06:39:45;0.77;;;0.77;;
41297;SDS011;27381;46.032;13.650;2023-01-16T06:42:11;0.20;;;0.20;;
41297;SDS011;27381;46.032;13.650;2023-01-16T06:44:36;0.10;;;0.10;;
41297;SDS011;27381;46.032;13.650;2023-01-16T06:47:02;0.10;;;0.10;;
41297;SDS011;27381;46.032;13.650;2023-01-16T06:49:28;0.20;;;0.20;;
41297;SDS011;27381;46.032;13.650;2023-01-16T06:51:53;0.30;;;0.30;;
41297;SDS011;27381;46.032;13.650;2023-01-16T06:54:18;0.20;;;0.20;;
41297;SDS011;27381;46.032;13.650;2023-01-16T06:56:44;0.20;;;0.20;;
41297;SDS011;27381;46.032;13.650;2023-01-16T06:59:10;0.20;;;0.20;;
41297;SDS011;27381;46.032;13.650;2023-01-16T07:01:35;0.10;;;0.10;;
41297;SDS011;27381;46.032;13.650;2023-01-16T07:04:01;0.20;;;0.20;;
41297;SDS011;27381;46.032;13.650;2023-01-16T07:06:26;0.20;;;0.20;;
41297;SDS011;27381;46.032;13.650;2023-01-16T07:08:52;0.10;;;0.10;;
41297;SDS011;27381;46.032;13.650;2023-01-16T07:11:17;0.10;;;0.10;;
41297;SDS011;27381;46.032;13.650;2023-01-16T07:13:43;0.10;;;0.10;;
41297;SDS011;27381;46.032;13.650;2023-01-16T07:16:12;0.20;;;0.20;;
41297;SDS011;27381;46.032;13.650;2023-01-16T07:18:56;0.20;;;0.20;;
41297;SDS011;27381;46.032;13.650;2023-01-16T07:21:40;0.20;;;0.20;;
41297;SDS011;27381;46.032;13.650;2023-01-16T07:24:25;0.10;;;0.10;;
41297;SDS011;27381;46.032;13.650;2023-01-16T07:26:58;0.20;;;0.20;;
41297;SDS011;27381;46.032;13.650;2023-01-16T07:29:25;0.10;;;0.10;;
41297;SDS011;27381;46.032;13.650;2023-01-16T07:31:51;0.25;;;0.20;;
41297;SDS011;27381;46.032;13.650;2023-01-16T07:34:17;0.20;;;0.20;;
41297;SDS011;27381;46.032;13.650;2023-01-16T07:36:42;0.20;;;0.20;;
41297;SDS011;27381;46.032;13.650;2023-01-16T07:39:07;0.10;;;0.10;;
41297;SDS011;27381;46.032;13.650;2023-01-16T07:41:33;0.28;;;0.20;;
41297;SDS011;27381;46.032;13.650;2023-01-16T07:43:58;0.75;;;0.20;;
41297;SDS011;27381;46.032;13.650;2023-01-16T07:46:24;0.10;;;0.10;;
41297;SDS011;27381;46.032;13.650;2023-01-16T07:48:50;0.10;;;0.10;;
41297;SDS011;27381;46.032;13.650;2023-01-16T07:51:16;0.10;;;0.10;;
41297;SDS011;27381;46.032;13.650;2023-01-16T07:53:42;0.10;;;0.10;;
41297;SDS011;27381;46.032;13.650;2023-01-16T07:56:07;1.45;;;0.20;;
41297;SDS011;27381;46.032;13.650;2023-01-16T07:58:32;0.15;;;0.15;;
41297;SDS011;27381;46.032;13.650;2023-01-16T08:00:58;0.20;;;0.20;;
41297;SDS011;27381;46.032;13.650;2023-01-16T08:06:45;0.82;;;0.32;;
41297;SDS011;27381;46.032;13.650;2023-01-16T08:09:11;0.20;;;0.20;;
41297;SDS011;27381;46.032;13.650;2023-01-16T08:11:36;0.10;;;0.10;;
41297;SDS011;27381;46.032;13.650;2023-01-16T08:14:03;0.20;;;0.20;;
41297;SDS011;27381;46.032;13.650;2023-01-16T08:16:29;0.20;;;0.20;;
41297;SDS011;27381;46.032;13.650;2023-01-16T08:18:55;0.20;;;0.20;;
41297;SDS011;27381;46.032;13.650;2023-01-16T08:21:20;0.30;;;0.20;;
41297;SDS011;27381;46.032;13.650;2023-01-16T08:23:45;0.20;;;0.20;;
41297;SDS011;27381;46.032;13.650;2023-01-16T08:26:11;0.20;;;0.20;;
41297;SDS011;27381;46.032;13.650;2023-01-16T08:28:37;0.10;;;0.10;;
41297;SDS011;27381;46.032;13.650;2023-01-16T08:33:56;0.10;;;0.10;;
41297;SDS011;27381;46.032;13.650;2023-01-16T08:36:22;0.13;;;0.13;;
41297;SDS011;27381;46.032;13.650;2023-01-16T08:38:48;0.20;;;0.20;;
41297;SDS011;27381;46.032;13.650;2023-01-16T08:41:14;0.30;;;0.20;;
41297;SDS011;27381;46.032;13.650;2023-01-16T08:43:58;0.20;;;0.20;;
41297;SDS011;27381;46.032;13.650;2023-01-16T08:46:42;0.20;;;0.20;;
41297;SDS011;27381;46.032;13.650;2023-01-16T08:49:26;0.22;;;0.22;;
41297;SDS011;27381;46.032;13.650;2023-01-16T08:52:10;0.10;;;0.10;;
41297;SDS011;27381;46.032;13.650;2023-01-16T08:54:36;0.20;;;0.20;;
41297;SDS011;27381;46.032;13.650;2023-01-16T08:57:02;0.20;;;0.20;;
41297;SDS011;27381;46.032;13.650;2023-01-16T08:59:28;0.10;;;0.10;;
41297;SDS011;27381;46.032;13.650;2023-01-16T09:02:01;0.20;;;0.20;;
41297;SDS011;27381;46.032;13.650;2023-01-16T09:04:27;0.10;;;0.10;;
41297;SDS011;27381;46.032;13.650;2023-01-16T09:06:53;0.20;;;0.20;;
41297;SDS011;27381;46.032;13.650;2023-01-16T09:09:19;0.20;;;0.20;;
41297;SDS011;27381;46.032;13.650;2023-01-16T09:11:45;0.10;;;0.10;;
41297;SDS011;27381;46.032;13.650;2023-01-16T09:14:29;0.20;;;0.20;;
41297;SDS011;27381;46.032;13.650;2023-01-16T09:16:55;0.22;;;0.22;;
41297;SDS011;27381;46.032;13.650;2023-01-16T09:19:20;0.30;;;0.30;;
41297;SDS011;27381;46.032;13.650;2023-01-16T09:21:45;0.17;;;0.17;;
41297;SDS011;27381;46.032;13.650;2023-01-16T09:24:11;0.30;;;0.30;;
41297;SDS011;27381;46.032;13.650;2023-01-16T09:26:36;0.30;;;0.30;;
41297;SDS011;27381;46.032;13.650;2023-01-16T09:29:01;0.15;;;0.15;;
41297;SDS011;27381;46.032;13.650;2023-01-16T09:31:27;0.32;;;0.32;;
41297;SDS011;27381;46.032;13.650;2023-01-16T09:33:52;0.20;;;0.20;;
41297;SDS011;27381;46.032;13.650;2023-01-16T09:36:19;0.20;;;0.20;;
41297;SDS011;27381;46.032;13.650;2023-01-16T09:38:45;0.20;;;0.20;;
41297;SDS011;27381;46.032;13.650;2023-01-16T09:41:13;0.10;;;0.10;;
41297;SDS011;27381;46.032;13.650;2023-01-16T09:43:59;0.17;;;0.17;;
41297;SDS011;27381;46.032;13.650;2023-01-16T09:46:27;0.55;;;0.40;;
41297;SDS011;27381;46.032;13.650;2023-01-16T09:48:55;0.20;;;0.20;;
41297;SDS011;27381;46.032;13.650;2023-01-16T09:51:39;0.17;;;0.17;;
41297;SDS011;27381;46.032;13.650;2023-01-16T09:54:10;0.20;;;0.20;;
41297;SDS011;27381;46.032;13.650;2023-01-16T09:56:56;0.20;;;0.20;;
41297;SDS011;27381;46.032;13.650;2023-01-16T09:59:52;0.10;;;0.10;;
41297;SDS011;27381;46.032;13.650;2023-01-16T10:02:21;0.65;;;0.20;;
41297;SDS011;27381;46.032;13.650;2023-01-16T10:04:47;0.10;;;0.10;;
41297;SDS011;27381;46.032;13.650;2023-01-16T10:12:35;0.30;;;0.30;;
41297;SDS011;27381;46.032;13.650;2023-01-16T10:15:14;0.30;;;0.30;;
41297;SDS011;27381;46.032;13.650;2023-01-16T10:20:33;0.40;;;0.40;;
41297;SDS011;27381;46.032;13.650;2023-01-16T10:23:43;0.52;;;0.20;;
41297;SDS011;27381;46.032;13.650;2023-01-16T10:25:52;0.20;;;0.20;;
41297;SDS011;27381;46.032;13.650;2023-01-16T10:31:02;0.20;;;0.20;;
41297;SDS011;27381;46.032;13.650;2023-01-16T10:33:35;0.35;;;0.20;;
41297;SDS011;27381;46.032;13.650;2023-01-16T10:36:04;0.30;;;0.30;;
41297;SDS011;27381;46.032;13.650;2023-01-16T10:41:39;0.50;;;0.30;;
41297;SDS011;27381;46.032;13.650;2023-01-16T10:44:36;0.43;;;0.32;;
41297;SDS011;27381;46.032;13.650;2023-01-16T10:47:27;0.20;;;0.20;;
41297;SDS011;27381;46.032;13.650;2023-01-16T10:50:13;0.20;;;0.20;;
41297;SDS011;27381;46.032;13.650;2023-01-16T10:52:38;0.20;;;0.20;;
41297;SDS011;27381;46.032;13.650;2023-01-16T10:55:04;0.90;;;0.55;;
41297;SDS011;27381;46.032;13.650;2023-01-16T10:57:30;0.17;;;0.17;;
41297;SDS011;27381;46.032;13.650;2023-01-16T11:00:16;0.20;;;0.20;;
41297;SDS011;27381;46.032;13.650;2023-01-16T11:02:43;0.20;;;0.20;;
41297;SDS011;27381;46.032;13.650;2023-01-16T11:07:48;0.30;;;0.30;;
41297;SDS011;27381;46.032;13.650;2023-01-16T11:10:14;0.20;;;0.20;;
41297;SDS011;27381;46.032;13.650;2023-01-16T11:12:39;0.20;;;0.20;;
41297;SDS011;27381;46.032;13.650;2023-01-16T11:15:24;0.15;;;0.15;;
41297;SDS011;27381;46.032;13.650;2023-01-16T11:18:21;0.25;;;0.25;;
41297;SDS011;27381;46.032;13.650;2023-01-16T11:20:53;0.10;;;0.10;;
41297;SDS011;27381;46.032;13.650;2023-01-16T11:23:22;0.20;;;0.20;;
41297;SDS011;27381;46.032;13.650;2023-01-16T11:25:49;0.15;;;0.15;;
41297;SDS011;27381;46.032;13.650;2023-01-16T11:28:20;0.20;;;0.20;;
41297;SDS011;27381;46.032;13.650;2023-01-16T11:30:47;0.20;;;0.20;;
41297;SDS011;27381;46.032;13.650;2023-01-16T11:33:19;0.10;;;0.10;;
41297;SDS011;27381;46.032;13.650;2023-01-16T11:35:53;0.20;;;0.20;;
41297;SDS011;27381;46.032;13.650;2023-01-16T11:38:20;0.80;;;0.20;;
41297;SDS011;27381;46.032;13.650;2023-01-16T11:40:46;0.20;;;0.20;;
41297;SDS011;27381;46.032;13.650;2023-01-16T11:43:13;0.20;;;0.20;;
41297;SDS011;27381;46.032;13.650;2023-01-16T11:45:57;0.68;;;0.60;;
41297;SDS011;27381;46.032;13.650;2023-01-16T11:48:43;0.20;;;0.20;;
41297;SDS011;27381;46.032;13.650;2023-01-16T11:51:14;0.47;;;0.20;;
41297;SDS011;27381;46.032;13.650;2023-01-16T11:53:41;1.60;;;1.00;;
41297;SDS011;27381;46.032;13.650;2023-01-16T12:02:05;1.00;;;0.52;;
41297;SDS011;27381;46.032;13.650;2023-01-16T12:04:24;0.68;;;0.40;;
41297;SDS011;27381;46.032;13.650;2023-01-16T12:06:57;0.77;;;0.50;;
41297;SDS011;27381;46.032;13.650;2023-01-16T12:21:52;0.20;;;0.20;;
41297;SDS011;27381;46.032;13.650;2023-01-16T12:24:39;0.35;;;0.35;;
41297;SDS011;27381;46.032;13.650;2023-01-16T12:32:17;0.50;;;0.50;;
41297;SDS011;27381;46.032;13.650;2023-01-16T12:37:39;0.45;;;0.45;;
41297;SDS011;27381;46.032;13.650;2023-01-16T12:40:20;2.88;;;1.48;;
41297;SDS011;27381;46.032;13.650;2023-01-16T12:42:53;1.33;;;0.70;;
41297;SDS011;27381;46.032;13.650;2023-01-16T12:55:57;0.63;;;0.40;;
41297;SDS011;27381;46.032;13.650;2023-01-16T12:58:27;1.38;;;0.60;;
41297;SDS011;27381;46.032;13.650;2023-01-16T13:03:30;0.60;;;0.60;;
41297;SDS011;27381;46.032;13.650;2023-01-16T13:05:59;0.63;;;0.45;;
41297;SDS011;27381;46.032;13.650;2023-01-16T13:08:47;0.43;;;0.40;;
41297;SDS011;27381;46.032;13.650;2023-01-16T13:11:26;1.65;;;0.43;;
41297;SDS011;27381;46.032;13.650;2023-01-16T13:14:12;0.63;;;0.63;;
41297;SDS011;27381;46.032;13.650;2023-01-16T13:16:40;0.30;;;0.30;;
41297;SDS011;27381;46.032;13.650;2023-01-16T13:19:17;0.50;;;0.43;;
41297;SDS011;27381;46.032;13.650;2023-01-16T13:21:54;0.30;;;0.30;;
41297;SDS011;27381;46.032;13.650;2023-01-16T13:24:24;0.68;;;0.52;;
41297;SDS011;27381;46.032;13.650;2023-01-16T13:26:53;0.55;;;0.47;;
41297;SDS011;27381;46.032;13.650;2023-01-16T13:29:37;0.40;;;0.40;;
41297;SDS011;27381;46.032;13.650;2023-01-16T13:32:21;0.80;;;0.63;;
41297;SDS011;27381;46.032;13.650;2023-01-16T13:34:49;1.35;;;0.40;;
41297;SDS011;27381;46.032;13.650;2023-01-16T13:39:59;0.65;;;0.30;;
41297;SDS011;27381;46.032;13.650;2023-01-16T13:42:27;0.30;;;0.30;;
41297;SDS011;27381;46.032;13.650;2023-01-16T13:44:57;0.40;;;0.40;;
41297;SDS011;27381;46.032;13.650;2023-01-16T13:47:42;0.60;;;0.43;;
41297;SDS011;27381;46.032;13.650;2023-01-16T13:52:49;0.93;;;0.45;;
41297;SDS011;27381;46.032;13.650;2023-01-16T13:57:50;0.40;;;0.40;;
41297;SDS011;27381;46.032;13.650;2023-01-16T14:00:18;2.10;;;0.68;;
41297;SDS011;27381;46.032;13.650;2023-01-16T14:02:44;0.40;;;0.40;;
41297;SDS011;27381;46.032;13.650;2023-01-16T14:10:39;0.45;;;0.45;;
41297;SDS011;27381;46.032;13.650;2023-01-16T14:13:13;0.70;;;0.38;;
41297;SDS011;27381;46.032;13.650;2023-01-16T14:15:52;0.70;;;0.70;;
41297;SDS011;27381;46.032;13.650;2023-01-16T14:18:37;0.63;;;0.38;;
41297;SDS011;27381;46.032;13.650;2023-01-16T14:21:04;0.40;;;0.40;;
41297;SDS011;27381;46.032;13.650;2023-01-16T14:23:34;1.40;;;0.98;;
41297;SDS011;27381;46.032;13.650;2023-01-16T14:26:22;2.15;;;0.80;;
41297;SDS011;27381;46.032;13.650;2023-01-16T14:28:49;0.88;;;0.60;;
41297;SDS011;27381;46.032;13.650;2023-01-16T14:31:21;1.02;;;0.60;;
41297;SDS011;27381;46.032;13.650;2023-01-16T14:33:48;1.52;;;0.70;;
41297;SDS011;27381;46.032;13.650;2023-01-16T14:36:14;0.85;;;0.80;;
41297;SDS011;27381;46.032;13.650;2023-01-16T14:38:44;1.13;;;0.77;;
41297;SDS011;27381;46.032;13.650;2023-01-16T14:41:13;1.60;;;0.80;;
41297;SDS011;27381;46.032;13.650;2023-01-16T14:47:04;1.15;;;1.02;;
41297;SDS011;27381;46.032;13.650;2023-01-16T14:55:24;1.45;;;0.82;;
41297;SDS011;27381;46.032;13.650;2023-01-16T14:57:50;1.10;;;0.80;;
41297;SDS011;27381;46.032;13.650;2023-01-16T15:00:17;3.17;;;1.00;;
41297;SDS011;27381;46.032;13.650;2023-01-16T15:05:13;0.38;;;0.38;;
41297;SDS011;27381;46.032;13.650;2023-01-16T15:07:50;1.13;;;0.80;;
41297;SDS011;27381;46.032;13.650;2023-01-16T15:10:18;0.50;;;0.40;;
41297;SDS011;27381;46.032;13.650;2023-01-16T15:12:45;1.63;;;0.85;;
41297;SDS011;27381;46.032;13.650;2023-01-16T15:15:21;0.52;;;0.52;;
41297;SDS011;27381;46.032;13.650;2023-01-16T15:17:50;3.15;;;1.02;;
41297;SDS011;27381;46.032;13.650;2023-01-16T15:20:36;0.88;;;0.70;;
41297;SDS011;27381;46.032;13.650;2023-01-16T15:23:28;1.15;;;0.80;;
41297;SDS011;27381;46.032;13.650;2023-01-16T15:31:10;2.70;;;1.00;;
41297;SDS011;27381;46.032;13.650;2023-01-16T15:33:38;0.68;;;0.55;;
41297;SDS011;27381;46.032;13.650;2023-01-16T15:39:02;2.97;;;1.00;;
41297;SDS011;27381;46.032;13.650;2023-01-16T15:41:32;0.50;;;0.50;;
41297;SDS011;27381;46.032;13.650;2023-01-16T15:44:17;1.02;;;0.63;;
41297;SDS011;27381;46.032;13.650;2023-01-16T15:52:16;0.98;;;0.90;;
41297;SDS011;27381;46.032;13.650;2023-01-16T15:54:42;1.02;;;0.80;;
41297;SDS011;27381;46.032;13.650;2023-01-16T15:57:16;0.70;;;0.57;;
41297;SDS011;27381;46.032;13.650;2023-01-16T15:59:49;1.55;;;0.85;;
41297;SDS011;27381;46.032;13.650;2023-01-16T16:02:17;1.42;;;0.55;;
41297;SDS011;27381;46.032;13.650;2023-01-16T16:04:43;2.08;;;0.80;;
41297;SDS011;27381;46.032;13.650;2023-01-16T16:07:10;0.82;;;0.70;;
41297;SDS011;27381;46.032;13.650;2023-01-16T16:09:35;0.50;;;0.50;;
41297;SDS011;27381;46.032;13.650;2023-01-16T16:12:01;1.42;;;1.35;;
41297;SDS011;27381;46.032;13.650;2023-01-16T16:14:33;0.80;;;0.75;;
41297;SDS011;27381;46.032;13.650;2023-01-16T16:17:25;0.75;;;0.70;;
41297;SDS011;27381;46.032;13.650;2023-01-16T16:20:29;2.78;;;1.13;;
41297;SDS011;27381;46.032;13.650;2023-01-16T16:23:00;1.27;;;0.52;;
41297;SDS011;27381;46.032;13.650;2023-01-16T16:25:28;1.20;;;0.98;;
41297;SDS011;27381;46.032;13.650;2023-01-16T16:27:55;4.82;;;1.60;;
41297;SDS011;27381;46.032;13.650;2023-01-16T16:30:27;1.65;;;1.10;;
41297;SDS011;27381;46.032;13.650;2023-01-16T16:32:53;0.95;;;0.73;;
41297;SDS011;27381;46.032;13.650;2023-01-16T16:35:20;1.02;;;0.88;;
41297;SDS011;27381;46.032;13.650;2023-01-16T16:37:47;1.77;;;0.93;;
41297;SDS011;27381;46.032;13.650;2023-01-16T16:40:14;0.82;;;0.75;;
41297;SDS011;27381;46.032;13.650;2023-01-16T16:42:53;2.03;;;0.80;;
41297;SDS011;27381;46.032;13.650;2023-01-16T16:45:20;0.98;;;0.88;;
41297;SDS011;27381;46.032;13.650;2023-01-16T16:47:47;1.85;;;0.77;;
41297;SDS011;27381;46.032;13.650;2023-01-16T16:50:35;0.82;;;0.75;;
41297;SDS011;27381;46.032;13.650;2023-01-16T16:53:10;3.38;;;0.70;;
41297;SDS011;27381;46.032;13.650;2023-01-16T16:55:45;0.75;;;0.75;;
41297;SDS011;27381;46.032;13.650;2023-01-16T16:58:13;3.28;;;1.05;;
41297;SDS011;27381;46.032;13.650;2023-01-16T17:00:39;1.08;;;0.90;;
41297;SDS011;27381;46.032;13.650;2023-01-16T17:03:06;1.27;;;1.10;;
41297;SDS011;27381;46.032;13.650;2023-01-16T17:05:32;1.83;;;1.08;;
41297;SDS011;27381;46.032;13.650;2023-01-16T17:07:58;1.33;;;0.93;;